Time;durP1;ratioP1;P1;durP2;ratioP2;P2;SDS_P1;SDS_P2;PMS_P1;PMS_P2;Temp;Humidity;BMP_temperature;BMP_pressure;BME280_temperature;BME280_humidity;BME280_pressure;Samples;Min_cycle;Max_cycle;Signal;HPM_P1;HPM_P2
2023/01/29 00:00:47;;;;;;;3.25;2.95;;;;;;;;;;5037009;28;20029;-77
2023/01/29 00:03:12;;;;;;;5.57;2.90;;;;;;;;;;5002943;28;20037;-77
2023/01/29 00:05:38;;;;;;;3.58;2.80;;;;;;;;;;5036534;28;20110;-78
2023/01/29 00:08:03;;;;;;;4.78;2.92;;;;;;;;;;5018831;28;20030;-77
2023/01/29 00:10:29;;;;;;;4.10;2.95;;;;;;;;;;5036818;28;20034;-77
2023/01/29 00:12:54;;;;;;;3.47;3.03;;;;;;;;;;5037527;28;20033;-77
2023/01/29 00:15:20;;;;;;;4.05;3.00;;;;;;;;;;5019361;28;20033;-78
2023/01/29 00:17:45;;;;;;;3.53;3.15;;;;;;;;;;5018964;28;20029;-78
2023/01/29 00:20:11;;;;;;;4.00;2.90;;;;;;;;;;5036334;28;20040;-78
2023/01/29 00:22:36;;;;;;;4.93;3.47;;;;;;;;;;5036368;28;20049;-78
2023/01/29 00:25:02;;;;;;;3.63;3.03;;;;;;;;;;5036225;28;20037;-78
2023/01/29 00:27:27;;;;;;;3.35;3.00;;;;;;;;;;5018711;28;20087;-77
2023/01/29 00:30:10;;;;;;;3.80;2.92;;;;;;;;;;5018393;28;20032;-77
2023/01/29 00:32:36;;;;;;;3.20;2.90;;;;;;;;;;5004387;28;20033;-78
2023/01/29 00:35:02;;;;;;;5.35;3.13;;;;;;;;;;5002089;28;20479;-77
2023/01/29 00:37:27;;;;;;;4.05;3.17;;;;;;;;;;5018279;28;20033;-77
2023/01/29 00:39:52;;;;;;;4.53;3.17;;;;;;;;;;5018746;28;20063;-77
2023/01/29 00:45:02;;;;;;;3.80;3.17;;;;;;;;;;5020935;28;20117;-77
2023/01/29 00:47:32;;;;;;;3.67;3.25;;;;;;;;;;5001683;28;20120;-77
2023/01/29 00:50:18;;;;;;;2.88;2.67;;;;;;;;;;5036107;28;20025;-77
2023/01/29 00:52:43;;;;;;;4.97;3.03;;;;;;;;;;5016904;28;20044;-77
2023/01/29 00:55:09;;;;;;;3.70;3.28;;;;;;;;;;5036144;28;20026;-77
2023/01/29 00:57:36;;;;;;;3.78;2.85;;;;;;;;;;5001763;28;20056;-78
2023/01/29 01:00:02;;;;;;;4.28;3.60;;;;;;;;;;5017871;28;20502;-77
2023/01/29 01:05:16;;;;;;;4.30;3.15;;;;;;;;;;5035790;28;20099;-77
2023/01/29 01:07:46;;;;;;;4.45;3.10;;;;;;;;;;5018111;28;20484;-77
2023/01/29 01:10:21;;;;;;;3.78;3.00;;;;;;;;;;5018062;28;20181;-77
2023/01/29 01:12:53;;;;;;;3.50;3.20;;;;;;;;;;5018815;28;20116;-78
2023/01/29 01:15:19;;;;;;;4.43;3.40;;;;;;;;;;5017486;28;20029;-77
2023/01/29 01:17:44;;;;;;;3.50;3.05;;;;;;;;;;5017658;28;20394;-77
2023/01/29 01:20:12;;;;;;;3.88;3.08;;;;;;;;;;5017821;28;20029;-77
2023/01/29 01:22:37;;;;;;;4.22;3.30;;;;;;;;;;5017351;28;20500;-77
2023/01/29 01:25:03;;;;;;;3.60;3.00;;;;;;;;;;5001025;28;20080;-77
2023/01/29 01:27:28;;;;;;;4.20;3.30;;;;;;;;;;5017262;28;20029;-77
2023/01/29 01:29:54;;;;;;;4.88;3.17;;;;;;;;;;5001048;28;20047;-77
2023/01/29 01:32:19;;;;;;;3.90;3.10;;;;;;;;;;5034979;28;20500;-78
2023/01/29 01:34:44;;;;;;;3.80;3.00;;;;;;;;;;5017297;28;20037;-77
2023/01/29 01:37:10;;;;;;;4.53;2.97;;;;;;;;;;5017342;28;20033;-77
2023/01/29 01:39:36;;;;;;;4.25;3.20;;;;;;;;;;5017115;28;20106;-78
2023/01/29 01:42:01;;;;;;;4.18;3.08;;;;;;;;;;5016956;28;20580;-77
2023/01/29 01:44:54;;;;;;;4.22;3.50;;;;;;;;;;5034820;28;20471;-78
2023/01/29 01:47:31;;;;;;;4.80;2.85;;;;;;;;;;5035203;28;20021;-78
2023/01/29 01:50:01;;;;;;;3.65;3.00;;;;;;;;;;5017363;28;20028;-78
2023/01/29 01:52:28;;;;;;;4.70;3.05;;;;;;;;;;5017449;28;20028;-78
2023/01/29 01:54:53;;;;;;;3.45;3.15;;;;;;;;;;5000465;28;20037;-78
2023/01/29 01:57:23;;;;;;;3.83;3.22;;;;;;;;;;5034526;28;20021;-78
2023/01/29 01:59:54;;;;;;;3.83;3.10;;;;;;;;;;5017098;28;20025;-78
2023/01/29 02:10:44;;;;;;;3.20;2.90;;;;;;;;;;5019425;28;20036;-78
2023/01/29 02:13:11;;;;;;;3.50;3.03;;;;;;;;;;5016709;28;20037;-77
2023/01/29 02:15:40;;;;;;;5.25;3.20;;;;;;;;;;5016611;28;20109;-78
2023/01/29 02:18:07;;;;;;;5.72;2.92;;;;;;;;;;5016998;28;20036;-77
2023/01/29 02:20:32;;;;;;;3.20;2.90;;;;;;;;;;5034423;28;20056;-77
2023/01/29 02:23:30;;;;;;;3.83;3.13;;;;;;;;;;5034964;28;20045;-77
2023/01/29 02:26:15;;;;;;;4.43;3.40;;;;;;;;;;5016715;28;20115;-77
2023/01/29 02:28:52;;;;;;;4.30;2.85;;;;;;;;;;5034032;28;20017;-77
2023/01/29 02:31:20;;;;;;;4.72;3.17;;;;;;;;;;4999964;28;20030;-77
2023/01/29 02:33:57;;;;;;;4.30;2.72;;;;;;;;;;5033831;28;20167;-77
2023/01/29 02:36:41;;;;;;;4.30;3.35;;;;;;;;;;5015990;28;20025;-78
2023/01/29 02:39:28;;;;;;;6.15;2.80;;;;;;;;;;5033746;28;20026;-78
2023/01/29 02:42:11;;;;;;;3.20;2.90;;;;;;;;;;5034094;28;20033;-77
2023/01/29 02:44:41;;;;;;;4.18;2.95;;;;;;;;;;5034170;28;20503;-77
2023/01/29 02:47:32;;;;;;;5.40;3.20;;;;;;;;;;5015855;28;20036;-78
2023/01/29 02:50:30;;;;;;;2.97;2.50;;;;;;;;;;5015965;28;20037;-78
2023/01/29 02:53:02;;;;;;;3.90;3.00;;;;;;;;;;5000646;28;20087;-78
2023/01/29 02:55:51;;;;;;;3.78;2.90;;;;;;;;;;5033401;28;20096;-77
2023/01/29 02:58:28;;;;;;;10.13;2.65;;;;;;;;;;5033643;28;20018;-77
2023/01/29 03:00:55;;;;;;;2.80;2.60;;;;;;;;;;5033261;28;20033;-77
2023/01/29 03:03:26;;;;;;;4.32;3.28;;;;;;;;;;5016188;28;20112;-77
2023/01/29 03:06:17;;;;;;;3.25;2.95;;;;;;;;;;5015650;28;20037;-78
2023/01/29 03:08:48;;;;;;;3.38;3.00;;;;;;;;;;5033354;28;20030;-78
2023/01/29 03:11:15;;;;;;;4.20;3.20;;;;;;;;;;5033196;28;20048;-77
2023/01/29 03:13:59;;;;;;;3.08;2.78;;;;;;;;;;4999165;28;20033;-77
2023/01/29 03:16:40;;;;;;;3.58;3.10;;;;;;;;;;5033039;28;20428;-77
2023/01/29 03:19:09;;;;;;;3.30;2.95;;;;;;;;;;5015399;28;20438;-77
2023/01/29 03:21:57;;;;;;;3.63;3.20;;;;;;;;;;5015272;28;20028;-77
2023/01/29 03:33:17;;;;;;;3.13;2.67;;;;;;;;;;5013330;28;20117;-77
2023/01/29 03:35:49;;;;;;;3.60;2.90;;;;;;;;;;4996227;28;20025;-78
2023/01/29 03:38:14;;;;;;;3.42;3.13;;;;;;;;;;4996003;28;20025;-77
2023/01/29 03:40:49;;;;;;;3.40;3.00;;;;;;;;;;5013051;28;20022;-76
2023/01/29 03:43:39;;;;;;;3.90;2.78;;;;;;;;;;4995735;28;20473;-77
2023/01/29 03:46:10;;;;;;;3.15;2.85;;;;;;;;;;4942316;28;20416;-78
2023/01/29 03:48:39;;;;;;;3.67;2.92;;;;;;;;;;4995661;28;20029;-78
2023/01/29 03:51:20;;;;;;;3.28;2.95;;;;;;;;;;4979349;28;20491;-77
2023/01/29 03:53:50;;;;;;;4.15;3.05;;;;;;;;;;4995578;28;20022;-77
2023/01/29 03:56:37;;;;;;;3.67;3.20;;;;;;;;;;4979204;28;20500;-78
2023/01/29 03:59:33;;;;;;;4.90;3.08;;;;;;;;;;4995424;28;20037;-78
2023/01/29 04:02:20;;;;;;;4.30;3.15;;;;;;;;;;5012747;28;20056;-77
2023/01/29 04:04:48;;;;;;;4.13;3.08;;;;;;;;;;4995788;28;20026;-77
2023/01/29 04:07:22;;;;;;;3.65;3.08;;;;;;;;;;4979132;28;20030;-78
2023/01/29 04:10:08;;;;;;;3.67;3.15;;;;;;;;;;4979664;28;20052;-79
2023/01/29 04:12:48;;;;;;;4.97;3.20;;;;;;;;;;4995067;28;20053;-79
2023/01/29 04:15:15;;;;;;;3.85;3.40;;;;;;;;;;4995331;28;20029;-78
2023/01/29 04:17:44;;;;;;;4.03;3.33;;;;;;;;;;4995425;28;20018;-78
2023/01/29 04:20:10;;;;;;;4.25;3.03;;;;;;;;;;4995277;28;20025;-78
2023/01/29 04:22:38;;;;;;;3.78;3.08;;;;;;;;;;5001051;28;20489;-79
2023/01/29 04:25:08;;;;;;;13.38;4.40;;;;;;;;;;5015225;28;20031;-78
2023/01/29 04:28:02;;;;;;;4.45;3.20;;;;;;;;;;5015965;28;20025;-79
2023/01/29 04:30:59;;;;;;;4.10;3.20;;;;;;;;;;5036125;28;20052;-79
2023/01/29 04:33:43;;;;;;;4.53;3.22;;;;;;;;;;5014451;28;20082;-79
2023/01/29 04:36:36;;;;;;;3.90;3.45;;;;;;;;;;5018316;28;20028;-78
2023/01/29 04:39:17;;;;;;;3.92;3.50;;;;;;;;;;5018854;28;20480;-79
2023/01/29 04:42:02;;;;;;;5.93;3.20;;;;;;;;;;5001830;28;20037;-78
2023/01/29 04:45:05;;;;;;;4.38;3.30;;;;;;;;;;5018359;28;20021;-77
2023/01/29 04:47:39;;;;;;;3.70;3.00;;;;;;;;;;4972237;28;20546;-78
2023/01/29 04:50:15;;;;;;;4.57;3.50;;;;;;;;;;5018197;28;20431;-78
2023/01/29 04:52:50;;;;;;;5.38;3.90;;;;;;;;;;5035777;28;20083;-78
2023/01/29 04:55:20;;;;;;;4.65;3.50;;;;;;;;;;5035864;28;20026;-77
2023/01/29 04:57:45;;;;;;;3.70;3.40;;;;;;;;;;5018021;28;20100;-77
2023/01/29 05:00:22;;;;;;;4.38;3.67;;;;;;;;;;5035546;28;20147;-77
2023/01/29 05:02:48;;;;;;;5.20;3.33;;;;;;;;;;5001976;28;20478;-78
2023/01/29 05:05:15;;;;;;;5.70;3.90;;;;;;;;;;5035847;28;20079;-77
2023/01/29 05:07:41;;;;;;;4.22;3.45;;;;;;;;;;5018322;28;20133;-78
2023/01/29 05:10:09;;;;;;;5.82;3.78;;;;;;;;;;5018412;28;20057;-78
2023/01/29 05:12:36;;;;;;;4.65;3.50;;;;;;;;;;5018635;28;20409;-77
2023/01/29 05:15:04;;;;;;;4.22;3.83;;;;;;;;;;5018335;28;20476;-77
2023/01/29 05:17:29;;;;;;;5.53;3.67;;;;;;;;;;5018382;28;20027;-77
2023/01/29 05:19:55;;;;;;;4.10;3.38;;;;;;;;;;5018517;28;20041;-77
2023/01/29 05:22:22;;;;;;;4.32;3.53;;;;;;;;;;5017737;28;20045;-77
2023/01/29 05:24:48;;;;;;;4.38;3.72;;;;;;;;;;5018079;28;20472;-77
2023/01/29 05:30:24;;;;;;;4.50;3.53;;;;;;;;;;5020598;28;20039;-78
2023/01/29 05:32:49;;;;;;;4.82;3.83;;;;;;;;;;5035948;28;20030;-78
2023/01/29 05:35:15;;;;;;;3.78;3.42;;;;;;;;;;5017559;28;20033;-78
2023/01/29 05:37:40;;;;;;;3.50;3.20;;;;;;;;;;5035605;28;20021;-77
2023/01/29 05:40:07;;;;;;;14.27;3.58;;;;;;;;;;5017576;28;20033;-78
2023/01/29 05:42:33;;;;;;;9.52;3.42;;;;;;;;;;5017760;28;20030;-78
2023/01/29 05:44:58;;;;;;;3.78;3.38;;;;;;;;;;5035757;28;20234;-78
2023/01/29 05:47:23;;;;;;;4.28;3.53;;;;;;;;;;5017528;28;20400;-78
2023/01/29 05:49:49;;;;;;;3.67;3.00;;;;;;;;;;5035595;28;20472;-78
2023/01/29 05:52:14;;;;;;;4.88;3.03;;;;;;;;;;5035247;28;20033;-78
2023/01/29 05:54:39;;;;;;;5.63;3.33;;;;;;;;;;5001117;28;20033;-78
2023/01/29 05:57:05;;;;;;;6.20;3.42;;;;;;;;;;5034959;28;20108;-78
2023/01/29 05:59:30;;;;;;;4.65;3.42;;;;;;;;;;5001081;28;20044;-78
2023/01/29 06:01:56;;;;;;;6.25;3.70;;;;;;;;;;5000983;28;20117;-78
2023/01/29 06:04:22;;;;;;;3.40;3.10;;;;;;;;;;5016978;28;20479;-78
2023/01/29 06:06:47;;;;;;;3.47;3.17;;;;;;;;;;5034699;28;20044;-78
2023/01/29 06:09:13;;;;;;;3.53;2.83;;;;;;;;;;5034692;28;20031;-78
2023/01/29 06:11:39;;;;;;;3.75;3.20;;;;;;;;;;5035049;28;20030;-78
2023/01/29 06:14:04;;;;;;;3.35;3.05;;;;;;;;;;5016920;28;20036;-78
2023/01/29 06:16:29;;;;;;;3.67;3.25;;;;;;;;;;5000486;28;20026;-78
2023/01/29 06:18:55;;;;;;;17.15;3.63;;;;;;;;;;5000431;28;20033;-77
2023/01/29 06:21:20;;;;;;;3.38;3.08;;;;;;;;;;5034779;28;20399;-77
2023/01/29 06:23:46;;;;;;;3.20;2.90;;;;;;;;;;5034222;28;20049;-77
2023/01/29 06:26:14;;;;;;;4.93;3.63;;;;;;;;;;5034423;28;20045;-78
2023/01/29 06:28:39;;;;;;;4.82;3.40;;;;;;;;;;5016787;28;20108;-78
2023/01/29 06:31:06;;;;;;;3.75;3.25;;;;;;;;;;5016940;28;20108;-78
2023/01/29 06:33:31;;;;;;;3.58;2.90;;;;;;;;;;5000226;28;20040;-78
2023/01/29 06:36:02;;;;;;;3.83;3.30;;;;;;;;;;5034711;28;20025;-78
2023/01/29 06:38:28;;;;;;;3.67;3.22;;;;;;;;;;5034686;28;20087;-78
2023/01/29 06:40:54;;;;;;;3.70;2.97;;;;;;;;;;5016605;28;20029;-78
2023/01/29 06:43:20;;;;;;;3.78;3.28;;;;;;;;;;5017587;28;20047;-78
2023/01/29 06:45:56;;;;;;;5.05;3.13;;;;;;;;;;5016419;28;20044;-78
2023/01/29 06:48:22;;;;;;;3.47;3.17;;;;;;;;;;5000297;28;20033;-78
2023/01/29 06:50:48;;;;;;;4.07;3.45;;;;;;;;;;5015943;28;20498;-78
2023/01/29 06:53:14;;;;;;;5.55;3.25;;;;;;;;;;5033837;28;20064;-78
2023/01/29 06:55:40;;;;;;;3.67;2.75;;;;;;;;;;5034114;28;20469;-78
2023/01/29 06:58:10;;;;;;;5.13;2.95;;;;;;;;;;5034095;28;20082;-78
2023/01/29 07:00:36;;;;;;;4.00;3.00;;;;;;;;;;5016344;28;20021;-78
2023/01/29 07:03:02;;;;;;;6.18;3.13;;;;;;;;;;5033761;28;20173;-78
2023/01/29 07:05:27;;;;;;;5.50;3.20;;;;;;;;;;5016391;28;20033;-78
2023/01/29 07:07:53;;;;;;;5.35;3.20;;;;;;;;;;5033633;28;20021;-78
2023/01/29 07:10:19;;;;;;;3.55;3.03;;;;;;;;;;5033664;28;20392;-78
2023/01/29 07:12:44;;;;;;;4.32;3.17;;;;;;;;;;5016099;28;20477;-78
2023/01/29 07:15:11;;;;;;;3.35;2.90;;;;;;;;;;5033802;28;20068;-78
2023/01/29 07:17:37;;;;;;;4.82;2.90;;;;;;;;;;5016250;28;20552;-78
2023/01/29 07:20:03;;;;;;;3.30;2.72;;;;;;;;;;5015925;28;20025;-77
2023/01/29 07:22:28;;;;;;;4.40;3.00;;;;;;;;;;5033335;28;20056;-77
2023/01/29 07:24:54;;;;;;;3.22;2.92;;;;;;;;;;5016066;28;20033;-78
2023/01/29 07:27:19;;;;;;;3.25;2.80;;;;;;;;;;5033365;28;20030;-77
2023/01/29 07:29:44;;;;;;;3.55;2.72;;;;;;;;;;5033428;28;20032;-77
2023/01/29 07:32:10;;;;;;;5.63;2.75;;;;;;;;;;5033357;28;20033;-78
2023/01/29 07:34:35;;;;;;;4.07;2.72;;;;;;;;;;5033625;28;20032;-78
2023/01/29 07:37:00;;;;;;;4.75;3.03;;;;;;;;;;5033427;28;20038;-78
2023/01/29 07:39:26;;;;;;;4.40;2.78;;;;;;;;;;5033623;28;20391;-78
2023/01/29 07:41:51;;;;;;;3.67;2.85;;;;;;;;;;5015589;28;20033;-78
2023/01/29 07:44:16;;;;;;;4.40;3.00;;;;;;;;;;5015843;28;20064;-77
2023/01/29 07:46:42;;;;;;;8.43;3.30;;;;;;;;;;5033079;28;20036;-78
2023/01/29 07:49:07;;;;;;;3.80;2.88;;;;;;;;;;4998727;28;20038;-76
2023/01/29 07:51:33;;;;;;;4.28;3.08;;;;;;;;;;5015245;28;20037;-77
2023/01/29 07:53:58;;;;;;;3.20;2.60;;;;;;;;;;5032918;28;20030;-78
2023/01/29 07:56:23;;;;;;;3.35;2.90;;;;;;;;;;5033124;28;20022;-78
2023/01/29 07:58:49;;;;;;;3.92;2.97;;;;;;;;;;5033050;28;20029;-78
2023/01/29 08:01:15;;;;;;;6.45;3.10;;;;;;;;;;5000167;28;20029;-78
2023/01/29 08:03:40;;;;;;;3.03;2.58;;;;;;;;;;5019455;28;20034;-78
2023/01/29 08:06:06;;;;;;;3.35;2.65;;;;;;;;;;5037008;28;20022;-78
2023/01/29 08:08:31;;;;;;;4.78;2.90;;;;;;;;;;5037228;28;20034;-78
2023/01/29 08:10:59;;;;;;;3.28;2.70;;;;;;;;;;5019134;28;20417;-78
2023/01/29 08:13:25;;;;;;;12.38;2.88;;;;;;;;;;5019352;28;20472;-77
2023/01/29 08:15:50;;;;;;;5.75;2.80;;;;;;;;;;5019414;28;20095;-77
2023/01/29 08:18:16;;;;;;;4.65;2.53;;;;;;;;;;5036733;28;20034;-78
2023/01/29 08:20:41;;;;;;;3.38;2.72;;;;;;;;;;5036738;28;20036;-78
2023/01/29 08:23:12;;;;;;;4.80;2.80;;;;;;;;;;5036890;28;20084;-78
2023/01/29 08:25:37;;;;;;;5.22;2.67;;;;;;;;;;5003056;28;20029;-77
2023/01/29 08:28:04;;;;;;;2.83;2.50;;;;;;;;;;5036529;28;20053;-77
2023/01/29 08:30:32;;;;;;;3.35;2.75;;;;;;;;;;5018895;28;20033;-79
2023/01/29 08:32:58;;;;;;;3.83;2.65;;;;;;;;;;5036477;28;20029;-77
2023/01/29 08:35:24;;;;;;;10.48;2.88;;;;;;;;;;5019135;28;20087;-77
2023/01/29 08:38:00;;;;;;;5.05;3.15;;;;;;;;;;5019275;28;20029;-77
2023/01/29 08:40:26;;;;;;;3.92;2.47;;;;;;;;;;5002230;28;20071;-77
2023/01/29 08:42:52;;;;;;;3.95;2.85;;;;;;;;;;5019486;28;20124;-77
2023/01/29 08:45:17;;;;;;;5.75;3.00;;;;;;;;;;5019228;28;20125;-77
2023/01/29 08:47:47;;;;;;;8.00;2.80;;;;;;;;;;5018569;28;20040;-77
2023/01/29 08:50:13;;;;;;;4.72;2.80;;;;;;;;;;5018688;28;20473;-77
2023/01/29 08:52:39;;;;;;;5.28;3.42;;;;;;;;;;5002086;28;20057;-77
2023/01/29 08:55:05;;;;;;;5.53;2.85;;;;;;;;;;5036332;28;20485;-77
2023/01/29 08:57:30;;;;;;;3.42;2.83;;;;;;;;;;5018877;28;20048;-77
2023/01/29 08:59:55;;;;;;;3.67;2.55;;;;;;;;;;5036022;28;20116;-77
2023/01/29 09:02:21;;;;;;;5.47;2.65;;;;;;;;;;5036015;28;20038;-77
2023/01/29 09:04:46;;;;;;;3.83;3.00;;;;;;;;;;5035971;28;20032;-77
2023/01/29 09:07:11;;;;;;;3.13;2.30;;;;;;;;;;5036225;28;20477;-77
2023/01/29 09:09:37;;;;;;;4.00;2.60;;;;;;;;;;5036398;28;20376;-77
2023/01/29 09:12:02;;;;;;;3.13;2.60;;;;;;;;;;5001935;28;20044;-77
2023/01/29 09:14:28;;;;;;;2.75;2.33;;;;;;;;;;5036115;28;20120;-77
2023/01/29 09:16:53;;;;;;;3.28;2.38;;;;;;;;;;5035843;28;20104;-77
2023/01/29 09:19:19;;;;;;;3.28;2.30;;;;;;;;;;5035988;28;20029;-77
2023/01/29 09:21:44;;;;;;;2.75;2.50;;;;;;;;;;5018031;28;20128;-77
2023/01/29 09:24:09;;;;;;;3.08;2.30;;;;;;;;;;5035806;28;20057;-77
2023/01/29 09:26:35;;;;;;;5.95;2.45;;;;;;;;;;5046952;28;20041;-77
2023/01/29 09:29:00;;;;;;;3.50;2.50;;;;;;;;;;5037016;28;20040;-77
2023/01/29 09:31:25;;;;;;;5.13;2.50;;;;;;;;;;5020594;28;20357;-77
2023/01/29 09:33:51;;;;;;;3.70;2.55;;;;;;;;;;5054670;28;20124;-77
2023/01/29 09:36:16;;;;;;;2.88;2.47;;;;;;;;;;5054728;28;20032;-77
2023/01/29 09:38:42;;;;;;;5.88;2.58;;;;;;;;;;5054808;28;20132;-77
2023/01/29 09:41:22;;;;;;;3.60;2.25;;;;;;;;;;5054639;28;20090;-77
2023/01/29 09:43:54;;;;;;;3.63;2.42;;;;;;;;;;5054696;28;20503;-77
2023/01/29 09:46:35;;;;;;;4.95;2.50;;;;;;;;;;5036809;28;20082;-77
2023/01/29 09:49:05;;;;;;;5.03;2.42;;;;;;;;;;5054526;28;20518;-77
2023/01/29 09:51:36;;;;;;;3.55;2.50;;;;;;;;;;5030132;28;20083;-78
2023/01/29 09:54:23;;;;;;;4.88;2.60;;;;;;;;;;5047542;28;20036;-75
2023/01/29 09:56:51;;;;;;;7.97;3.13;;;;;;;;;;5052408;28;20538;-76
2023/01/29 09:59:19;;;;;;;4.18;2.50;;;;;;;;;;5053181;28;20040;-76
2023/01/29 10:02:13;;;;;;;5.97;2.72;;;;;;;;;;5053129;28;20087;-76
2023/01/29 10:04:51;;;;;;;5.95;2.85;;;;;;;;;;5012898;28;20251;-77
2023/01/29 10:08:03;;;;;;;5.57;2.67;;;;;;;;;;5052930;28;20029;-76
2023/01/29 10:10:47;;;;;;;3.72;2.83;;;;;;;;;;5030802;28;20033;-77
2023/01/29 10:13:24;;;;;;;11.90;2.83;;;;;;;;;;5052984;28;20137;-77
2023/01/29 10:16:34;;;;;;;4.45;2.75;;;;;;;;;;5052004;28;20111;-76
2023/01/29 10:19:24;;;;;;;3.42;2.65;;;;;;;;;;5038229;28;20593;-77
2023/01/29 10:22:12;;;;;;;4.63;3.15;;;;;;;;;;5053962;28;20530;-77
2023/01/29 10:24:51;;;;;;;7.78;3.83;;;;;;;;;;5050347;28;20045;-77
2023/01/29 10:27:18;;;;;;;11.02;3.55;;;;;;;;;;5050584;28;20041;-77
2023/01/29 10:29:44;;;;;;;9.13;3.65;;;;;;;;;;5052449;28;20025;-77
2023/01/29 10:32:18;;;;;;;12.50;3.47;;;;;;;;;;5052307;28;20048;-77
2023/01/29 10:34:53;;;;;;;4.78;3.53;;;;;;;;;;5052387;28;20029;-77
2023/01/29 10:37:26;;;;;;;10.15;3.53;;;;;;;;;;5052312;28;20116;-77
2023/01/29 10:39:51;;;;;;;10.63;3.38;;;;;;;;;;5035599;28;20504;-78
2023/01/29 10:42:45;;;;;;;4.95;3.40;;;;;;;;;;5052196;28;20048;-77
2023/01/29 10:45:42;;;;;;;7.60;3.90;;;;;;;;;;5049526;28;20399;-77
2023/01/29 10:48:29;;;;;;;8.68;3.47;;;;;;;;;;5051013;28;20129;-77
2023/01/29 10:51:21;;;;;;;7.72;3.30;;;;;;;;;;5053330;28;20057;-77
2023/01/29 10:54:24;;;;;;;6.00;3.40;;;;;;;;;;5052027;28;20033;-77
2023/01/29 10:57:06;;;;;;;10.68;3.67;;;;;;;;;;5050040;28;20082;-77
2023/01/29 10:59:59;;;;;;;7.95;3.33;;;;;;;;;;5053159;28;20387;-78
2023/01/29 11:02:25;;;;;;;5.90;3.50;;;;;;;;;;5051857;28;20052;-77
2023/01/29 11:04:50;;;;;;;7.78;3.45;;;;;;;;;;5052305;28;20074;-77
2023/01/29 11:07:17;;;;;;;4.65;3.15;;;;;;;;;;5051721;28;20468;-77
2023/01/29 11:09:48;;;;;;;10.60;3.83;;;;;;;;;;5053041;28;20053;-77
2023/01/29 11:12:16;;;;;;;7.07;3.20;;;;;;;;;;5051805;28;20074;-78
2023/01/29 11:14:52;;;;;;;4.57;3.30;;;;;;;;;;5051727;28;20037;-78
2023/01/29 11:17:19;;;;;;;7.15;3.50;;;;;;;;;;5051692;28;20475;-77
2023/01/29 11:19:47;;;;;;;6.15;3.50;;;;;;;;;;5051659;28;20104;-77
2023/01/29 11:22:18;;;;;;;6.90;3.50;;;;;;;;;;5051588;28;20029;-77
2023/01/29 11:24:44;;;;;;;4.65;2.95;;;;;;;;;;5034730;28;20049;-76
2023/01/29 11:27:32;;;;;;;5.18;3.42;;;;;;;;;;5049625;28;20451;-79
2023/01/29 11:29:57;;;;;;;4.47;3.10;;;;;;;;;;5034699;28;20396;-76
2023/01/29 11:32:23;;;;;;;6.25;3.97;;;;;;;;;;5051483;28;20029;-74
2023/01/29 11:34:58;;;;;;;5.85;3.40;;;;;;;;;;5051321;28;20028;-73
2023/01/29 11:37:40;;;;;;;4.75;3.20;;;;;;;;;;5052326;28;20020;-78
2023/01/29 11:40:17;;;;;;;6.05;3.80;;;;;;;;;;5052637;28;20147;-78
2023/01/29 11:42:43;;;;;;;7.47;3.60;;;;;;;;;;5052965;28;20041;-77
2023/01/29 11:45:31;;;;;;;6.97;3.10;;;;;;;;;;5051754;28;20479;-75
2023/01/29 11:47:57;;;;;;;4.85;3.45;;;;;;;;;;5051531;28;20036;-78
2023/01/29 11:50:28;;;;;;;6.55;3.60;;;;;;;;;;5051812;28;20053;-78
2023/01/29 11:52:54;;;;;;;5.55;3.80;;;;;;;;;;5052990;28;20392;-77
2023/01/29 11:55:22;;;;;;;5.75;4.00;;;;;;;;;;5052934;28;20033;-78
2023/01/29 11:58:04;;;;;;;5.15;4.10;;;;;;;;;;5051807;28;20383;-78
2023/01/29 12:00:32;;;;;;;4.60;3.75;;;;;;;;;;5051898;28;20029;-76
2023/01/29 12:03:01;;;;;;;4.85;4.10;;;;;;;;;;5053464;28;20025;-77
2023/01/29 12:05:26;;;;;;;7.20;3.65;;;;;;;;;;5052616;28;20468;-77
2023/01/29 12:07:54;;;;;;;5.88;3.95;;;;;;;;;;5051530;28;20078;-77
2023/01/29 12:10:34;;;;;;;5.10;3.95;;;;;;;;;;5051561;28;20369;-76
2023/01/29 12:13:08;;;;;;;7.07;4.15;;;;;;;;;;5051749;28;20171;-78
2023/01/29 12:15:37;;;;;;;6.22;4.63;;;;;;;;;;5053075;28;20498;-78
2023/01/29 12:18:29;;;;;;;6.93;4.40;;;;;;;;;;5051420;28;20155;-78
2023/01/29 12:21:01;;;;;;;6.75;4.90;;;;;;;;;;5051799;28;20108;-77
2023/01/29 12:23:28;;;;;;;6.90;4.88;;;;;;;;;;5051469;28;20511;-77
2023/01/29 12:26:14;;;;;;;7.15;4.88;;;;;;;;;;5052877;28;20111;-78
2023/01/29 12:29:05;;;;;;;9.63;4.82;;;;;;;;;;5051664;28;20391;-79
2023/01/29 12:31:49;;;;;;;6.35;5.03;;;;;;;;;;5051730;28;20383;-78
2023/01/29 12:34:45;;;;;;;6.60;4.40;;;;;;;;;;5037650;28;20032;-78
2023/01/29 12:37:46;;;;;;;9.10;4.70;;;;;;;;;;5043225;28;20083;-78
2023/01/29 12:40:16;;;;;;;5.57;4.85;;;;;;;;;;5034288;28;20052;-77
2023/01/29 12:42:45;;;;;;;6.55;4.93;;;;;;;;;;5008338;28;20032;-78
2023/01/29 12:45:16;;;;;;;7.05;4.88;;;;;;;;;;5020466;28;20112;-78
2023/01/29 12:47:46;;;;;;;6.38;5.10;;;;;;;;;;5015033;28;20115;-77
2023/01/29 12:50:25;;;;;;;5.78;5.13;;;;;;;;;;5009762;28;20040;-75
2023/01/29 12:52:56;;;;;;;8.68;4.93;;;;;;;;;;5033224;28;20060;-75
2023/01/29 12:55:25;;;;;;;8.35;5.97;;;;;;;;;;5038167;28;20124;-75
2023/01/29 12:58:03;;;;;;;6.53;4.85;;;;;;;;;;5031835;28;20032;-75
2023/01/29 13:00:31;;;;;;;5.55;4.47;;;;;;;;;;5010176;28;20083;-75
2023/01/29 13:03:06;;;;;;;6.90;4.53;;;;;;;;;;5027795;28;20020;-75
2023/01/29 13:05:46;;;;;;;7.18;5.07;;;;;;;;;;5028090;28;20513;-76
2023/01/29 13:08:23;;;;;;;8.30;4.50;;;;;;;;;;5043234;28;20072;-76
2023/01/29 13:10:50;;;;;;;8.52;4.90;;;;;;;;;;5025399;28;20441;-75
2023/01/29 13:13:31;;;;;;;7.30;4.70;;;;;;;;;;5027286;28;20028;-76
2023/01/29 13:15:58;;;;;;;8.82;4.90;;;;;;;;;;5044790;28;20531;-76
2023/01/29 13:19:03;;;;;;;9.90;4.75;;;;;;;;;;5026373;28;20115;-75
2023/01/29 13:21:37;;;;;;;6.75;4.50;;;;;;;;;;5043590;28;20073;-76
2023/01/29 13:24:24;;;;;;;8.52;4.65;;;;;;;;;;5026115;28;20045;-76
2023/01/29 13:26:49;;;;;;;7.07;4.20;;;;;;;;;;5043600;28;20061;-75
2023/01/29 13:29:29;;;;;;;8.38;4.43;;;;;;;;;;5044810;28;20506;-76
2023/01/29 13:31:55;;;;;;;11.68;4.13;;;;;;;;;;5026824;28;20029;-75
2023/01/29 13:34:24;;;;;;;6.28;4.32;;;;;;;;;;5034457;28;20025;-76
2023/01/29 13:37:08;;;;;;;7.32;4.10;;;;;;;;;;5028341;28;20083;-76
2023/01/29 13:39:45;;;;;;;5.60;4.28;;;;;;;;;;5045653;28;20395;-75
2023/01/29 13:42:23;;;;;;;8.02;4.07;;;;;;;;;;5037555;28;20052;-75
2023/01/29 13:44:50;;;;;;;6.47;4.25;;;;;;;;;;5037070;28;20395;-75
2023/01/29 13:47:36;;;;;;;7.32;4.20;;;;;;;;;;5020334;28;20082;-76
2023/01/29 13:50:09;;;;;;;6.25;4.40;;;;;;;;;;5021254;28;20029;-76
2023/01/29 13:53:04;;;;;;;4.83;4.00;;;;;;;;;;5025358;28;20115;-76
2023/01/29 13:55:31;;;;;;;4.75;3.83;;;;;;;;;;4994711;28;20630;-76
2023/01/29 13:57:59;;;;;;;6.18;4.22;;;;;;;;;;5042938;28;20075;-76
2023/01/29 14:00:29;;;;;;;4.45;3.90;;;;;;;;;;5023514;28;20088;-76
2023/01/29 14:02:55;;;;;;;5.20;4.05;;;;;;;;;;5016579;28;20053;-76
2023/01/29 14:05:29;;;;;;;5.63;4.20;;;;;;;;;;5034382;28;20056;-76
2023/01/29 14:08:02;;;;;;;6.32;4.53;;;;;;;;;;5034332;28;20025;-76
2023/01/29 14:10:30;;;;;;;5.90;3.75;;;;;;;;;;5017446;28;20041;-76
2023/01/29 14:13:10;;;;;;;5.72;4.22;;;;;;;;;;5001192;28;20034;-76
2023/01/29 14:15:38;;;;;;;6.20;4.50;;;;;;;;;;5034281;28;20025;-76
2023/01/29 14:18:26;;;;;;;5.20;4.00;;;;;;;;;;5016944;28;20035;-77
2023/01/29 14:21:19;;;;;;;5.55;4.13;;;;;;;;;;5016333;28;20075;-76
2023/01/29 14:23:49;;;;;;;4.43;3.80;;;;;;;;;;5015962;28;20566;-76
2023/01/29 14:26:20;;;;;;;5.90;4.35;;;;;;;;;;5033773;28;20034;-76
2023/01/29 14:29:19;;;;;;;5.53;4.00;;;;;;;;;;5033890;28;20512;-76
2023/01/29 14:31:53;;;;;;;5.03;4.15;;;;;;;;;;5031993;28;20107;-76
2023/01/29 14:35:08;;;;;;;6.55;4.15;;;;;;;;;;5016016;28;20040;-76
2023/01/29 14:37:37;;;;;;;5.90;4.30;;;;;;;;;;4996067;28;20044;-76
2023/01/29 14:40:18;;;;;;;5.07;3.75;;;;;;;;;;5016372;28;20365;-76
2023/01/29 14:43:02;;;;;;;5.45;4.10;;;;;;;;;;5034370;28;20029;-76
2023/01/29 14:45:31;;;;;;;;;;;;;;;;;;5035088;28;20060;-74
2023/01/29 14:47:58;;;;;;;5.07;3.90;;;;;;;;;;5016566;28;19913;-75
2023/01/29 14:50:27;;;;;;;5.28;4.55;;;;;;;;;;5034184;28;20104;-76
2023/01/29 14:52:53;;;;;;;5.82;4.28;;;;;;;;;;5033760;28;20029;-76
2023/01/29 14:55:36;;;;;;;4.82;4.20;;;;;;;;;;5016616;28;20053;-76
2023/01/29 14:58:02;;;;;;;6.32;4.53;;;;;;;;;;5016095;28;20083;-76
2023/01/29 15:00:35;;;;;;;4.93;4.40;;;;;;;;;;5016070;28;20111;-76
2023/01/29 15:03:01;;;;;;;6.95;4.80;;;;;;;;;;5034153;28;20021;-75
2023/01/29 15:05:31;;;;;;;8.18;4.40;;;;;;;;;;5016018;28;20037;-76
2023/01/29 15:08:11;;;;;;;13.13;4.45;;;;;;;;;;5016435;28;20033;-76
2023/01/29 15:10:42;;;;;;;6.00;4.70;;;;;;;;;;5015915;28;20033;-76
2023/01/29 15:13:16;;;;;;;5.85;4.30;;;;;;;;;;4999443;28;20037;-76
2023/01/29 15:15:52;;;;;;;7.35;4.63;;;;;;;;;;5015958;28;20029;-75
2023/01/29 15:18:46;;;;;;;7.80;4.53;;;;;;;;;;5015651;28;20029;-74
2023/01/29 15:21:17;;;;;;;6.43;4.55;;;;;;;;;;5020763;28;20395;-76
2023/01/29 15:23:43;;;;;;;4.95;4.43;;;;;;;;;;4999203;28;20575;-76
2023/01/29 15:26:10;;;;;;;5.63;4.47;;;;;;;;;;5033429;28;20459;-76
2023/01/29 15:28:37;;;;;;;6.53;4.57;;;;;;;;;;5015764;28;20040;-76
2023/01/29 15:31:06;;;;;;;5.45;4.32;;;;;;;;;;5033332;28;20091;-76
2023/01/29 15:33:32;;;;;;;5.82;4.63;;;;;;;;;;5016442;28;20460;-75
2023/01/29 15:36:02;;;;;;;5.13;4.47;;;;;;;;;;5015757;28;20033;-74
2023/01/29 15:38:28;;;;;;;5.13;4.05;;;;;;;;;;5015578;28;20091;-75